createdAt,value
2022-08-29T00:00:25.778Z,100521.50
2022-08-29T00:01:00.687Z,100517.13
2022-08-29T00:01:32.912Z,100523.41
2022-08-29T00:02:04.921Z,100520.69
2022-08-29T00:02:36.541Z,100527.78
2022-08-29T00:03:08.853Z,100518.78
2022-08-29T00:03:43.397Z,100519.03
2022-08-29T00:04:15.012Z,100519.59
2022-08-29T00:04:46.546Z,100522.31
2022-08-29T00:05:18.463Z,100525.03
2022-08-29T00:05:50.332Z,100525.88
2022-08-29T00:06:21.928Z,100521.50
2022-08-29T00:06:53.395Z,100522.31
2022-08-29T00:07:24.860Z,100526.16
2022-08-29T00:07:56.336Z,100526.16
2022-08-29T00:08:27.857Z,100527.25
2022-08-29T00:08:59.360Z,100524.50
2022-08-29T00:09:30.968Z,100521.78
2022-08-29T00:10:02.458Z,100525.31
2022-08-29T00:10:33.915Z,100528.06
2022-08-29T00:11:05.536Z,100528.34
2022-08-29T00:11:36.962Z,100524.78
2022-08-29T00:12:16.800Z,100528.34
2022-08-29T00:12:48.349Z,100528.63
2022-08-29T00:13:19.804Z,100521.25
2022-08-29T00:13:51.446Z,100522.88
2022-08-29T00:14:23.645Z,100523.97
2022-08-29T00:14:55.304Z,100521.78
2022-08-29T00:15:26.762Z,100519.34
2022-08-29T00:15:58.271Z,100522.06
2022-08-29T00:16:29.828Z,100528.34
2022-08-29T00:17:01.405Z,100522.34
2022-08-29T00:17:32.875Z,100526.69
2022-08-29T00:18:04.386Z,100523.97
2022-08-29T00:18:36.909Z,100523.16
2022-08-29T00:19:08.410Z,100520.16
2022-08-29T00:19:39.890Z,100522.88
2022-08-29T00:20:11.413Z,100520.16
2022-08-29T00:20:42.961Z,100521.25
2022-08-29T00:21:14.498Z,100517.69
2022-08-29T00:21:46.000Z,100521.25
2022-08-29T00:22:17.521Z,100522.06
2022-08-29T00:22:49.091Z,100518.50
2022-08-29T00:23:20.560Z,100523.97
2022-08-29T00:23:52.069Z,100525.59
2022-08-29T00:24:23.635Z,100519.34
2022-08-29T00:24:55.175Z,100525.31
2022-08-29T00:25:26.590Z,100523.41
2022-08-29T00:25:58.211Z,100523.41
2022-08-29T00:26:30.118Z,100534.34
2022-08-29T00:27:02.960Z,100527.78
2022-08-29T00:27:34.472Z,100535.69
2022-08-29T00:28:06.110Z,100529.13
2022-08-29T00:28:37.575Z,100537.03
2022-08-29T00:29:09.043Z,100536.22
2022-08-29T00:29:40.568Z,100533.50
2022-08-29T00:30:12.048Z,100540.88
2022-08-29T00:30:43.584Z,100532.69
2022-08-29T00:31:15.238Z,100529.94
2022-08-29T00:31:46.712Z,100532.97
2022-08-29T00:32:18.244Z,100526.69
2022-08-29T00:32:49.714Z,100530.22
2022-08-29T00:33:21.143Z,100528.59
2022-08-29T00:33:52.655Z,100534.06
2022-08-29T00:34:24.102Z,100529.41
2022-08-29T00:34:55.691Z,100525.88
2022-08-29T00:35:27.163Z,100525.59
2022-08-29T00:35:58.715Z,100531.03
2022-08-29T00:36:31.020Z,100533.78
2022-08-29T00:37:02.701Z,100527.78
2022-08-29T00:37:35.068Z,100532.41
2022-08-29T00:38:09.983Z,100530.50
2022-08-29T00:38:41.921Z,100527.25
2022-08-29T00:39:13.458Z,100529.16
2022-08-29T00:39:45.466Z,100526.69
2022-08-29T00:40:17.163Z,100527.53
2022-08-29T00:40:51.676Z,100522.06
2022-08-29T00:41:23.634Z,100527.53
2022-08-29T00:41:55.116Z,100523.16
2022-08-29T00:42:26.938Z,100518.78
2022-08-29T00:42:58.454Z,100519.88
2022-08-29T00:43:29.940Z,100525.06
2022-08-29T00:44:01.435Z,100523.16
2022-08-29T00:44:32.901Z,100521.53
2022-08-29T00:45:04.389Z,100523.44
2022-08-29T00:45:35.917Z,100520.16
2022-08-29T00:46:07.708Z,100522.63
2022-08-29T00:46:39.243Z,100524.53
2022-08-29T00:47:10.737Z,100523.44
2022-08-29T00:47:42.195Z,100521.00
2022-08-29T00:48:13.762Z,100521.25
2022-08-29T00:48:45.410Z,100526.72
2022-08-29T00:49:16.875Z,100522.91
2022-08-29T00:49:48.376Z,100520.44
2022-08-29T00:50:19.790Z,100519.66
2022-08-29T00:50:51.326Z,100518.03
2022-08-29T00:51:22.876Z,100520.75
2022-08-29T00:51:54.336Z,100517.22
2022-08-29T00:52:25.836Z,100521.84
2022-08-29T00:52:57.373Z,100514.75
2022-08-29T00:53:28.932Z,100512.84
2022-08-29T00:54:00.455Z,100520.22
2022-08-29T00:54:31.925Z,100517.50
2022-08-29T00:55:03.408Z,100520.50
2022-08-29T00:55:34.993Z,100519.41
2022-08-29T00:56:06.504Z,100516.41
2022-08-29T00:56:37.934Z,100523.78
2022-08-29T00:57:09.404Z,100518.03
2022-08-29T00:57:40.997Z,100517.22
2022-08-29T00:58:14.593Z,100522.69
2022-08-29T00:58:46.361Z,100516.13
2022-08-29T00:59:17.843Z,100516.94
2022-08-29T00:59:49.321Z,100520.44
2022-08-29T01:00:21.186Z,100522.41
2022-08-29T01:00:52.746Z,100522.41
2022-08-29T01:01:24.373Z,100521.56
2022-08-29T01:02:42.561Z,100518.31
2022-08-29T01:03:13.960Z,100521.31
2022-08-29T01:03:45.438Z,100517.78
2022-08-29T01:04:24.235Z,100518.88
2022-08-29T01:04:55.937Z,100519.16
2022-08-29T01:05:27.385Z,100516.41
2022-08-29T01:05:58.838Z,100512.59
2022-08-29T01:06:30.355Z,100519.97
2022-08-29T01:07:01.881Z,100518.06
2022-08-29T01:07:33.402Z,100517.78
2022-08-29T01:08:09.427Z,100516.13
2022-08-29T01:08:40.941Z,100513.13
2022-08-29T01:09:15.081Z,100520.50
2022-08-29T01:09:46.635Z,100514.22
2022-08-29T01:10:18.124Z,100517.78
2022-08-29T01:10:49.649Z,100516.41
2022-08-29T01:11:21.078Z,100517.50
2022-08-29T01:11:55.703Z,100510.97
2022-08-29T01:12:27.183Z,100514.78
2022-08-29T01:12:58.766Z,100518.63
2022-08-29T01:13:30.454Z,100518.34
2022-08-29T01:14:01.968Z,100520.25
2022-08-29T01:14:37.827Z,100515.88
2022-08-29T01:15:09.979Z,100523.78
2022-08-29T01:15:41.427Z,100514.22
2022-08-29T01:16:12.962Z,100518.06
2022-08-29T01:16:44.592Z,100512.06
2022-08-29T01:17:16.248Z,100515.88
2022-08-29T01:17:50.251Z,100514.78
2022-08-29T01:18:21.717Z,100515.06
2022-08-29T01:18:53.444Z,100520.53
2022-08-29T01:19:27.857Z,100511.25
2022-08-29T01:19:59.479Z,100521.34
2022-08-29T01:20:31.035Z,100514.25
2022-08-29T01:21:02.521Z,100517.78
2022-08-29T01:21:34.052Z,100513.16
2022-08-29T01:22:05.513Z,100515.34
2022-08-29T01:22:37.220Z,100513.44
2022-08-29T01:23:08.660Z,100519.72
2022-08-29T01:23:40.193Z,100517.25
2022-08-29T01:24:11.731Z,100512.06
2022-08-29T01:24:43.150Z,100520.53
2022-08-29T01:25:14.653Z,100522.19
2022-08-29T01:25:46.408Z,100520.53
2022-08-29T01:26:17.843Z,100519.72
2022-08-29T01:26:49.377Z,100519.72
2022-08-29T01:27:20.826Z,100528.44
2022-08-29T01:27:52.417Z,100525.72
2022-08-29T01:28:23.922Z,100526.53
2022-08-29T01:28:55.458Z,100520.53
2022-08-29T01:29:26.945Z,100519.44
2022-08-29T01:29:58.450Z,100520.81
2022-08-29T01:30:32.759Z,100520.81
2022-08-29T01:31:04.199Z,100521.63
2022-08-29T01:31:46.099Z,100521.91
2022-08-29T01:32:27.120Z,100520.81
2022-08-29T01:32:58.798Z,100517.00
2022-08-29T01:33:30.332Z,100523.56
2022-08-29T01:34:01.765Z,100527.09
2022-08-29T01:34:33.225Z,100521.63
2022-08-29T01:35:04.678Z,100520.81
2022-08-29T01:35:36.152Z,100522.47
2022-08-29T01:36:07.760Z,100521.63
2022-08-29T01:36:39.239Z,100527.91
2022-08-29T01:37:10.653Z,100523.00
2022-08-29T01:37:42.147Z,100525.19
2022-08-29T01:38:13.697Z,100529.00
2022-08-29T01:38:45.349Z,100526.28
2022-08-29T01:39:17.410Z,100519.72
2022-08-29T01:39:49.192Z,100532.84
2022-08-29T01:40:20.791Z,100528.47
2022-08-29T01:40:52.404Z,100528.47
2022-08-29T01:41:23.875Z,100528.47
2022-08-29T01:41:55.355Z,100526.84
2022-08-29T01:42:26.834Z,100526.84
2022-08-29T01:42:58.775Z,100527.94
2022-08-29T01:43:30.331Z,100522.19
2022-08-29T01:44:01.836Z,100533.13
2022-08-29T01:44:33.348Z,100526.03
2022-08-29T01:45:05.124Z,100523.56
2022-08-29T01:45:41.437Z,100518.13
2022-08-29T01:46:12.997Z,100519.22
2022-08-29T01:46:44.531Z,100521.94
2022-08-29T01:47:16.106Z,100529.84
2022-08-29T01:47:49.911Z,100526.31
2022-08-29T01:48:21.395Z,100527.94
2022-08-29T01:48:52.833Z,100530.94
2022-08-29T01:49:24.262Z,100523.03
2022-08-29T01:49:55.699Z,100530.13
2022-08-29T01:50:27.230Z,100529.59
2022-08-29T01:50:58.669Z,100532.31
2022-08-29T01:51:30.182Z,100527.94
2022-08-29T01:52:02.128Z,100529.59
2022-08-29T01:52:33.779Z,100528.22
2022-08-29T01:53:05.418Z,100525.75
2022-08-29T01:53:37.216Z,100526.84
2022-08-29T01:54:08.805Z,100529.59
2022-08-29T01:54:40.302Z,100530.69
2022-08-29T01:55:11.780Z,100534.22
2022-08-29T01:55:43.217Z,100527.13
2022-08-29T01:56:14.658Z,100531.50
2022-08-29T01:56:48.567Z,100533.41
2022-08-29T01:57:20.124Z,100532.31
2022-08-29T01:57:51.604Z,100533.13
2022-08-29T01:58:24.303Z,100530.41
2022-08-29T01:58:55.787Z,100535.03
2022-08-29T01:59:27.344Z,100529.59
2022-08-29T01:59:58.873Z,100532.31
2022-08-29T02:00:30.352Z,100529.03
2022-08-29T02:01:01.876Z,100538.88
2022-08-29T02:01:33.425Z,100536.69
2022-08-29T02:02:05.005Z,100534.78
2022-08-29T02:02:36.826Z,100535.84
2022-08-29T02:03:08.757Z,100536.69
2022-08-29T02:03:40.254Z,100532.84
2022-08-29T02:04:11.735Z,100538.03
2022-08-29T02:04:43.262Z,100536.13
2022-08-29T02:05:14.796Z,100534.22
2022-08-29T02:05:46.362Z,100530.38
2022-08-29T02:06:17.991Z,100530.38
2022-08-29T02:06:49.460Z,100532.31
2022-08-29T02:07:20.916Z,100533.94
2022-08-29T02:07:52.325Z,100532.03
2022-08-29T02:08:23.807Z,100527.38
2022-08-29T02:08:55.236Z,100532.56
2022-08-29T02:09:26.688Z,100536.63
2022-08-29T02:09:58.148Z,100528.72
2022-08-29T02:10:29.719Z,100532.00
2022-08-29T02:11:01.212Z,100533.91
2022-08-29T02:11:32.693Z,100534.72
2022-08-29T02:12:04.177Z,100537.47
2022-08-29T02:12:35.723Z,100534.72
2022-08-29T02:13:07.193Z,100538.28
2022-08-29T02:13:38.735Z,100532.81
2022-08-29T02:14:19.216Z,100532.53
2022-08-29T02:14:50.932Z,100538.00
2022-08-29T02:15:22.459Z,100534.19
2022-08-29T02:15:53.934Z,100536.09
2022-08-29T02:16:25.509Z,100535.00
2022-08-29T02:16:57.046Z,100538.81
2022-08-29T02:17:28.552Z,100535.53
2022-08-29T02:18:00.005Z,100533.63
2022-08-29T02:18:31.440Z,100532.81
2022-08-29T02:19:02.911Z,100531.69
2022-08-29T02:19:34.444Z,100532.53
2022-08-29T02:20:05.965Z,100527.88
2022-08-29T02:20:38.996Z,100533.34
2022-08-29T02:21:10.491Z,100531.41
2022-08-29T02:21:42.100Z,100525.97
2022-08-29T02:22:13.582Z,100524.88
2022-08-29T02:22:45.014Z,100531.16
2022-08-29T02:23:30.267Z,100520.22
2022-08-29T02:24:21.397Z,100532.50
2022-08-29T02:24:53.957Z,100530.88
2022-08-29T02:25:25.419Z,100526.50
2022-08-29T02:25:56.919Z,100530.03
2022-08-29T02:26:28.378Z,100530.31
2022-08-29T02:26:59.926Z,100527.59
2022-08-29T02:27:31.425Z,100525.97
2022-08-29T02:28:02.930Z,100530.31
2022-08-29T02:28:34.377Z,100531.41
2022-08-29T02:29:05.918Z,100534.69
2022-08-29T02:29:38.383Z,100531.97
2022-08-29T02:30:10.120Z,100530.03
2022-08-29T02:30:41.585Z,100531.16
2022-08-29T02:31:13.137Z,100527.03
2022-08-29T02:31:44.712Z,100524.31
2022-08-29T02:32:16.309Z,100527.84
2022-08-29T02:32:47.682Z,100527.03
2022-08-29T02:33:19.216Z,100529.78
2022-08-29T02:33:50.775Z,100534.41
2022-08-29T02:34:22.223Z,100534.91
2022-08-29T02:34:53.694Z,100531.38
2022-08-29T02:35:25.544Z,100530.59
2022-08-29T02:35:56.991Z,100532.50
2022-08-29T02:36:29.469Z,100534.41
2022-08-29T02:37:01.078Z,100534.41
2022-08-29T02:37:32.549Z,100534.41
2022-08-29T02:38:03.965Z,100544.22
2022-08-29T02:38:35.463Z,100539.06
2022-08-29T02:39:06.883Z,100537.41
2022-08-29T02:39:38.439Z,100539.34
2022-08-29T02:40:10.074Z,100540.16
2022-08-29T02:40:41.688Z,100534.97
2022-08-29T02:41:14.408Z,100545.88
2022-08-29T02:41:45.959Z,100544.25
2022-08-29T02:42:17.472Z,100538.78
2022-08-29T02:42:48.894Z,100542.63
2022-08-29T02:43:20.507Z,100548.06
2022-08-29T02:43:51.943Z,100546.44
2022-08-29T02:44:23.463Z,100549.19
2022-08-29T02:44:54.969Z,100548.34
2022-08-29T02:45:26.566Z,100553.28
2022-08-29T02:45:58.056Z,100549.19
2022-08-29T02:46:29.591Z,100544.84
2022-08-29T02:47:01.179Z,100553.28
2022-08-29T02:47:32.811Z,100547.03
2022-08-29T02:48:04.297Z,100551.38
2022-08-29T02:48:35.827Z,100544.84
2022-08-29T02:49:07.314Z,100545.09
2022-08-29T02:49:38.867Z,100544.28
2022-08-29T02:50:10.926Z,100545.38
2022-08-29T02:50:42.441Z,100545.38
2022-08-29T02:51:13.825Z,100546.22
2022-08-29T02:51:45.346Z,100550.31
2022-08-29T02:52:16.805Z,100544.84
2022-08-29T02:52:48.279Z,100543.22
2022-08-29T02:53:19.767Z,100544.84
2022-08-29T02:53:51.269Z,100544.03
2022-08-29T02:54:22.728Z,100542.66
2022-08-29T02:54:54.288Z,100541.84
2022-08-29T02:55:26.451Z,100550.31
2022-08-29T02:55:57.985Z,100549.50
2022-08-29T02:56:29.384Z,100544.84
2022-08-29T02:57:00.862Z,100548.41
2022-08-29T02:57:32.336Z,100544.56
2022-08-29T02:58:03.780Z,100544.84
2022-08-29T02:58:35.243Z,100539.66
2022-08-29T02:59:06.678Z,100533.13
2022-08-29T02:59:38.286Z,100540.47
2022-08-29T03:00:09.768Z,100539.66
2022-08-29T03:00:41.326Z,100542.13
2022-08-29T03:01:13.060Z,100538.84
2022-08-29T03:01:44.553Z,100546.50
2022-08-29T03:02:16.204Z,100547.59
2022-08-29T03:02:47.762Z,100547.06
2022-08-29T03:03:19.237Z,100545.16
2022-08-29T03:03:50.718Z,100545.97
2022-08-29T03:04:22.188Z,100545.16
2022-08-29T03:04:53.645Z,100538.59
2022-08-29T03:05:25.089Z,100545.97
2022-08-29T03:05:56.585Z,100544.31
2022-08-29T03:06:28.096Z,100543.50
2022-08-29T03:06:59.510Z,100548.44
2022-08-29T03:07:30.942Z,100551.16
2022-08-29T03:08:02.402Z,100551.16
2022-08-29T03:08:34.023Z,100545.69
2022-08-29T03:09:07.263Z,100542.16
2022-08-29T03:09:38.711Z,100538.88
2022-08-29T03:10:10.218Z,100539.69
2022-08-29T03:10:41.771Z,100551.16
2022-08-29T03:11:13.284Z,100543.50
2022-08-29T03:11:44.721Z,100548.69
2022-08-29T03:12:16.229Z,100547.88
2022-08-29T03:12:47.690Z,100544.34
2022-08-29T03:13:19.151Z,100549.78
2022-08-29T03:13:50.631Z,100551.44
2022-08-29T03:14:22.881Z,100554.44
2022-08-29T03:14:54.326Z,100556.34
2022-08-29T03:15:25.785Z,100548.97
2022-08-29T03:15:57.223Z,100546.53
2022-08-29T03:16:28.653Z,100557.97
2022-08-29T03:17:00.199Z,100547.34
2022-08-29T03:17:31.619Z,100545.44
2022-08-29T03:18:03.067Z,100545.72
2022-08-29T03:18:34.461Z,100552.81
2022-08-29T03:19:05.931Z,100547.06
2022-08-29T03:19:37.630Z,100546.25
2022-08-29T03:20:09.061Z,100557.97
2022-08-29T03:20:40.625Z,100545.44
2022-08-29T03:21:12.111Z,100544.34
2022-08-29T03:21:43.621Z,100544.63
2022-08-29T03:22:15.154Z,100541.63
2022-08-29T03:22:46.624Z,100544.63
2022-08-29T03:23:18.078Z,100550.91
2022-08-29T03:23:49.564Z,100543.25
2022-08-29T03:24:25.715Z,100536.69
2022-08-29T03:24:58.626Z,100539.44
2022-08-29T03:25:30.087Z,100540.50
2022-08-29T03:26:01.596Z,100540.78
2022-08-29T03:26:33.142Z,100548.16
2022-08-29T03:27:04.592Z,100535.63
2022-08-29T03:27:36.125Z,100539.16
2022-08-29T03:28:07.639Z,100542.97
2022-08-29T03:28:39.181Z,100552.00
2022-08-29T03:29:10.660Z,100549.53
2022-08-29T03:29:42.165Z,100542.97
2022-08-29T03:30:13.605Z,100539.16
2022-08-29T03:30:45.130Z,100539.16
2022-08-29T03:31:16.640Z,100545.44
2022-08-29T03:31:48.208Z,100544.63
2022-08-29T03:32:19.628Z,100543.81
2022-08-29T03:32:51.124Z,100550.91
2022-08-29T03:33:22.682Z,100539.97
2022-08-29T03:33:54.189Z,100545.44
2022-08-29T03:34:25.742Z,100539.97
2022-08-29T03:34:57.161Z,100539.97
2022-08-29T03:35:28.580Z,100538.34
2022-08-29T03:36:00.101Z,100537.25
2022-08-29T03:36:31.548Z,100537.25
2022-08-29T03:37:02.993Z,100541.06
2022-08-29T03:37:34.427Z,100539.44
2022-08-29T03:38:05.868Z,100542.16
2022-08-29T03:38:37.308Z,100535.63
2022-08-29T03:39:08.746Z,100537.81
2022-08-29T03:39:40.305Z,100535.06
2022-08-29T03:40:11.857Z,100535.88
2022-08-29T03:40:43.465Z,100535.34
2022-08-29T03:41:15.096Z,100538.09
2022-08-29T03:41:46.500Z,100540.81
2022-08-29T03:42:17.934Z,100528.81
2022-08-29T03:42:49.374Z,100534.53
2022-08-29T03:43:20.845Z,100547.38
2022-08-29T03:43:52.286Z,100534.81
2022-08-29T03:44:23.797Z,100533.16
2022-08-29T03:44:55.292Z,100539.41
2022-08-29T03:45:26.718Z,100544.06
2022-08-29T03:45:58.181Z,100544.88
2022-08-29T03:46:29.790Z,100544.06
2022-08-29T03:47:01.416Z,100546.78
2022-08-29T03:47:32.924Z,100546.78
2022-08-29T03:48:04.405Z,100545.97
2022-08-29T03:48:35.984Z,100549.50
2022-08-29T03:49:07.430Z,100541.88
2022-08-29T03:49:38.837Z,100542.69
2022-08-29T03:50:10.336Z,100545.44
2022-08-29T03:50:41.833Z,100554.44
2022-08-29T03:51:13.367Z,100547.06
2022-08-29T03:51:44.839Z,100546.25
2022-08-29T03:52:16.314Z,100547.88
2022-08-29T03:52:47.843Z,100548.16
2022-08-29T03:53:19.357Z,100550.06
2022-08-29T03:53:51.605Z,100553.63
2022-08-29T03:54:23.123Z,100543.78
2022-08-29T03:54:54.611Z,100547.63
2022-08-29T03:55:26.202Z,100543.53
2022-08-29T03:55:57.775Z,100544.63
2022-08-29T03:56:29.280Z,100547.34
2022-08-29T03:57:00.809Z,100537.53
2022-08-29T03:57:32.251Z,100541.34
2022-08-29T03:58:03.776Z,100538.88
2022-08-29T03:58:35.255Z,100538.34
2022-08-29T03:59:06.694Z,100542.72
2022-08-29T03:59:38.245Z,100539.16
2022-08-29T04:00:09.771Z,100538.63
2022-08-29T04:00:41.297Z,100541.09
2022-08-29T04:01:12.785Z,100539.44
2022-08-29T04:01:44.290Z,100534.00
2022-08-29T04:02:15.832Z,100541.34
2022-08-29T04:02:47.368Z,100536.72
2022-08-29T04:03:18.932Z,100537.00
2022-08-29T04:03:50.476Z,100543.25
2022-08-29T04:04:21.939Z,100538.63
2022-08-29T04:04:53.396Z,100543.81
2022-08-29T04:05:24.900Z,100542.16
2022-08-29T04:05:56.369Z,100536.72
2022-08-29T04:06:28.019Z,100542.16
2022-08-29T04:06:59.441Z,100545.72
2022-08-29T04:07:31.079Z,100540.25
2022-08-29T04:08:02.633Z,100541.09
2022-08-29T04:08:34.301Z,100544.34
2022-08-29T04:09:05.798Z,100538.34
2022-08-29T04:09:37.256Z,100539.44
2022-08-29T04:10:08.740Z,100539.44
2022-08-29T04:10:40.208Z,100541.09
2022-08-29T04:11:11.625Z,100545.72
2022-08-29T04:11:43.111Z,100541.09
2022-08-29T04:12:14.634Z,100542.44
2022-08-29T04:12:47.604Z,100543.25
2022-08-29T04:13:20.652Z,100538.63
2022-08-29T04:13:52.117Z,100543.25
2022-08-29T04:14:23.627Z,100542.44
2022-08-29T04:14:55.090Z,100538.91
2022-08-29T04:15:26.560Z,100537.81
2022-08-29T04:15:58.107Z,100542.44
2022-08-29T04:16:30.360Z,100541.63
2022-08-29T04:17:02.659Z,100541.63
2022-08-29T04:17:34.140Z,100545.19
2022-08-29T04:18:06.915Z,100540.00
2022-08-29T04:18:47.161Z,100543.25
2022-08-29T04:19:18.628Z,100539.72
2022-08-29T04:19:50.095Z,100544.91
2022-08-29T04:20:24.730Z,100547.91
2022-08-29T04:20:57.107Z,100543.53
2022-08-29T04:21:28.713Z,100547.38
2022-08-29T04:22:00.133Z,100545.72
2022-08-29T04:22:31.637Z,100537.28
2022-08-29T04:23:03.096Z,100539.19
2022-08-29T04:23:34.585Z,100542.72
2022-08-29T04:24:06.074Z,100536.72
2022-08-29T04:24:37.553Z,100540.28
2022-08-29T04:25:09.122Z,100540.28
2022-08-29T04:25:40.602Z,100545.44
2022-08-29T04:26:34.898Z,100543.00
2022-08-29T04:27:03.621Z,100546.81
2022-08-29T04:27:35.129Z,100540.56
2022-08-29T04:28:06.585Z,100547.63
2022-08-29T04:28:38.165Z,100543.28
2022-08-29T04:29:09.609Z,100545.47
2022-08-29T04:29:41.138Z,100537.00
2022-08-29T04:30:12.571Z,100539.47
2022-08-29T04:30:46.450Z,100540.56
2022-08-29T04:31:23.215Z,100543.81
2022-08-29T04:31:54.700Z,100545.72
2022-08-29T04:32:26.161Z,100550.09
2022-08-29T04:32:57.601Z,100544.63
2022-08-29T04:33:29.082Z,100547.38
2022-08-29T04:34:00.648Z,100542.19
2022-08-29T04:34:32.092Z,100541.09
2022-08-29T04:35:04.289Z,100543.81
2022-08-29T04:35:35.719Z,100546.28
2022-08-29T04:36:07.455Z,100549.28
2022-08-29T04:36:40.080Z,100545.44
2022-08-29T04:37:11.545Z,100553.63
2022-08-29T04:37:42.993Z,100543.53
2022-08-29T04:38:14.573Z,100547.09
2022-08-29T04:38:46.322Z,100549.00
2022-08-29T04:39:17.790Z,100543.00
2022-08-29T04:39:49.269Z,100541.09
2022-08-29T04:40:20.818Z,100543.53
2022-08-29T04:40:52.274Z,100547.09
2022-08-29T04:41:23.779Z,100547.91
2022-08-29T04:41:55.227Z,100550.34
2022-08-29T04:42:26.698Z,100546.00
2022-08-29T04:42:58.144Z,100548.72
2022-08-29T04:43:29.572Z,100540.81
2022-08-29T04:44:01.091Z,100547.09
2022-08-29T04:44:32.549Z,100543.53
2022-08-29T04:45:04.034Z,100545.44
2022-08-29T04:45:35.479Z,100545.44
2022-08-29T04:46:06.985Z,100542.44
2022-08-29T04:46:47.767Z,100538.09
2022-08-29T04:47:19.308Z,100541.63
2022-08-29T04:47:50.727Z,100534.25
2022-08-29T04:48:22.304Z,100549.53
2022-08-29T04:48:53.801Z,100541.63
2022-08-29T04:49:25.318Z,100542.72
2022-08-29T04:49:56.775Z,100539.19
2022-08-29T04:50:28.246Z,100542.19
2022-08-29T04:50:59.758Z,100544.09
2022-08-29T04:51:31.184Z,100548.72
2022-08-29T04:52:02.729Z,100540.56
2022-08-29T04:52:34.178Z,100547.63
2022-08-29T04:53:05.790Z,100541.38
2022-08-29T04:53:37.269Z,100537.28
2022-08-29T04:54:08.681Z,100543.56
2022-08-29T04:54:40.163Z,100548.19
2022-08-29T04:55:11.583Z,100547.38
2022-08-29T04:55:43.023Z,100548.47
2022-08-29T04:56:16.364Z,100541.91
2022-08-29T04:56:47.859Z,100543.00
2022-08-29T04:57:19.758Z,100548.19
2022-08-29T04:57:51.428Z,100541.38
2022-08-29T04:58:22.935Z,100549.28
2022-08-29T04:58:56.394Z,100545.72
2022-08-29T04:59:27.832Z,100545.72
2022-08-29T04:59:59.895Z,100549.53
2022-08-29T05:00:31.967Z,100551.19
2022-08-29T05:01:03.416Z,100552.81
2022-08-29T05:01:34.973Z,100553.63
2022-08-29T05:02:06.545Z,100553.91
2022-08-29T05:02:38.174Z,100555.28
2022-08-29T05:03:09.775Z,100549.81
2022-08-29T05:03:41.392Z,100556.09
2022-08-29T05:04:14.602Z,100549.81
2022-08-29T05:04:46.411Z,100552.53
2022-08-29T05:05:17.882Z,100556.38
2022-08-29T05:05:49.358Z,100559.63
2022-08-29T05:06:22.443Z,100557.19
2022-08-29T05:06:54.189Z,100557.19
2022-08-29T05:07:25.701Z,100554.19
2022-08-29T05:07:57.208Z,100553.34
2022-08-29T05:08:28.713Z,100561.25
2022-08-29T05:09:01.886Z,100557.44
2022-08-29T05:09:33.387Z,100555.25
2022-08-29T05:10:04.869Z,100554.97
2022-08-29T05:10:36.372Z,100558.53
2022-08-29T05:11:10.395Z,100563.16
2022-08-29T05:11:41.875Z,100566.72
2022-08-29T05:12:13.376Z,100554.72
2022-08-29T05:12:44.836Z,100564.00
2022-08-29T05:13:16.382Z,100565.63
2022-08-29T05:13:47.832Z,100560.16
2022-08-29T05:14:19.395Z,100555.53
2022-08-29T05:14:50.876Z,100566.44
2022-08-29T05:15:23.339Z,100555.53
2022-08-29T05:15:54.836Z,100554.72
2022-08-29T05:16:26.363Z,100558.53
2022-08-29T05:16:57.911Z,100559.34
2022-08-29T05:17:29.337Z,100558.81
2022-08-29T05:18:00.788Z,100559.91
2022-08-29T05:18:32.219Z,100558.81
2022-08-29T05:19:03.667Z,100568.34
2022-08-29T05:19:35.496Z,100561.25
2022-08-29T05:20:07.013Z,100562.34
2022-08-29T05:20:38.522Z,100561.53
2022-08-29T05:21:09.977Z,100561.00
2022-08-29T05:21:41.472Z,100561.81
2022-08-29T05:22:12.885Z,100564.53
2022-08-29T05:22:44.328Z,100571.91
2022-08-29T05:23:15.837Z,100569.19
2022-08-29T05:23:47.312Z,100561.00
2022-08-29T05:24:18.806Z,100568.38
2022-08-29T05:24:50.252Z,100572.72
2022-08-29T05:25:21.751Z,100569.19
2022-08-29T05:25:53.200Z,100566.72
2022-08-29T05:26:24.714Z,100568.63
2022-08-29T05:26:56.248Z,100567.00
2022-08-29T05:27:27.685Z,100570.81
2022-08-29T05:27:59.170Z,100572.75
2022-08-29T05:28:30.680Z,100565.66
2022-08-29T05:29:02.161Z,100576.00
2022-08-29T05:29:33.659Z,100572.19
2022-08-29T05:30:05.087Z,100568.91
2022-08-29T05:30:36.851Z,100579.84
2022-08-29T05:31:13.149Z,100573.28
2022-08-29T05:31:45.599Z,100573.56
2022-08-29T05:32:17.287Z,100571.66
2022-08-29T05:32:48.778Z,100568.91
2022-08-29T05:33:20.259Z,100568.91
2022-08-29T05:33:51.817Z,100565.91
2022-08-29T05:34:34.618Z,100570.84
2022-08-29T05:35:06.797Z,100569.47
2022-08-29T05:35:38.243Z,100565.94
2022-08-29T05:36:09.731Z,100568.66
2022-08-29T05:36:41.197Z,100573.28
2022-08-29T05:37:12.704Z,100568.94
2022-08-29T05:37:44.224Z,100567.28
2022-08-29T05:38:15.924Z,100567.28
2022-08-29T05:38:47.540Z,100568.38
2022-08-29T05:39:19.054Z,100568.38
2022-08-29T05:39:50.496Z,100573.84
2022-08-29T05:40:22.161Z,100575.75
2022-08-29T05:40:53.653Z,100569.19
2022-08-29T05:41:25.184Z,100570.84
2022-08-29T05:41:56.595Z,100571.94
2022-08-29T05:42:28.079Z,100561.28
2022-08-29T05:42:59.512Z,100564.28
2022-08-29T05:43:30.996Z,100565.94
2022-08-29T05:44:02.424Z,100568.94
2022-08-29T05:44:35.434Z,100564.56
2022-08-29T05:45:07.199Z,100564.84
2022-08-29T05:45:38.646Z,100565.94
2022-08-29T05:46:10.286Z,100564.31
2022-08-29T05:46:41.890Z,100562.66
2022-08-29T05:47:13.468Z,100562.94
2022-08-29T05:47:44.944Z,100561.84
2022-08-29T05:48:16.610Z,100560.22
2022-08-29T05:48:48.076Z,100559.66
2022-08-29T05:49:19.580Z,100563.50
2022-08-29T05:49:51.078Z,100558.59
2022-08-29T05:50:22.644Z,100561.03
2022-08-29T05:50:54.089Z,100557.22
2022-08-29T05:51:25.603Z,100560.22
2022-08-29T05:51:57.121Z,100556.66
2022-08-29T05:52:28.663Z,100559.94
2022-08-29T05:53:00.150Z,100559.94
2022-08-29T05:53:31.665Z,100562.66
2022-08-29T05:54:03.159Z,100567.31
2022-08-29T05:54:34.663Z,100566.50
2022-08-29T05:55:06.094Z,100567.84
2022-08-29T05:55:37.782Z,100568.66
2022-08-29T05:56:09.257Z,100569.50
2022-08-29T05:56:40.722Z,100575.22
2022-08-29T05:57:16.698Z,100568.94
2022-08-29T05:57:50.403Z,100580.41
2022-08-29T05:58:21.918Z,100573.31
2022-08-29T05:58:53.379Z,100574.41
2022-08-29T05:59:24.876Z,100573.31
2022-08-29T05:59:56.473Z,100579.84
2022-08-29T06:00:28.126Z,100576.03
2022-08-29T06:00:59.652Z,100581.47
2022-08-29T06:01:34.028Z,100582.31
2022-08-29T06:02:05.534Z,100582.03
2022-08-29T06:02:37.190Z,100579.03
2022-08-29T06:03:08.824Z,100579.31
2022-08-29T06:03:45.380Z,100582.03
2022-08-29T06:04:17.492Z,100581.22
2022-08-29T06:04:48.927Z,100581.75